sensor_id;sensor_type;location;lat;lon;timestamp;P1;durP1;ratioP1;P2;durP2;ratioP2
48881;SDS011;57063;51.406;-2.402;2023-05-03T00:00:40;6.35;;;3.13;;
48881;SDS011;57063;51.406;-2.402;2023-05-03T00:03:05;5.25;;;2.97;;
48881;SDS011;57063;51.406;-2.402;2023-05-03T00:05:31;5.77;;;3.40;;
48881;SDS011;57063;51.406;-2.402;2023-05-03T00:07:56;4.55;;;3.03;;
48881;SDS011;57063;51.406;-2.402;2023-05-03T00:10:22;5.82;;;3.13;;
48881;SDS011;57063;51.406;-2.402;2023-05-03T00:12:47;5.47;;;2.58;;
48881;SDS011;57063;51.406;-2.402;2023-05-03T00:15:13;6.97;;;2.77;;
48881;SDS011;57063;51.406;-2.402;2023-05-03T00:17:38;3.90;;;2.20;;
48881;SDS011;57063;51.406;-2.402;2023-05-03T00:20:03;6.25;;;2.70;;
48881;SDS011;57063;51.406;-2.402;2023-05-03T00:22:29;6.55;;;2.90;;
48881;SDS011;57063;51.406;-2.402;2023-05-03T00:24:54;5.88;;;2.75;;
48881;SDS011;57063;51.406;-2.402;2023-05-03T00:27:20;4.90;;;2.40;;
48881;SDS011;57063;51.406;-2.402;2023-05-03T00:29:45;4.30;;;2.13;;
48881;SDS011;57063;51.406;-2.402;2023-05-03T00:32:11;5.05;;;2.35;;
48881;SDS011;57063;51.406;-2.402;2023-05-03T00:34:36;3.67;;;2.15;;
48881;SDS011;57063;51.406;-2.402;2023-05-03T00:37:02;3.13;;;1.90;;
48881;SDS011;57063;51.406;-2.402;2023-05-03T00:39:30;4.17;;;2.33;;
48881;SDS011;57063;51.406;-2.402;2023-05-03T00:41:58;6.57;;;2.63;;
48881;SDS011;57063;51.406;-2.402;2023-05-03T00:44:23;4.30;;;1.98;;
48881;SDS011;57063;51.406;-2.402;2023-05-03T00:46:49;9.05;;;2.00;;
48881;SDS011;57063;51.406;-2.402;2023-05-03T00:49:14;7.90;;;2.90;;
48881;SDS011;57063;51.406;-2.402;2023-05-03T00:51:40;4.65;;;2.33;;
48881;SDS011;57063;51.406;-2.402;2023-05-03T00:54:05;6.57;;;2.10;;
48881;SDS011;57063;51.406;-2.402;2023-05-03T00:56:31;7.10;;;2.50;;
48881;SDS011;57063;51.406;-2.402;2023-05-03T00:58:56;5.82;;;2.13;;
48881;SDS011;57063;51.406;-2.402;2023-05-03T01:01:22;5.57;;;2.10;;
48881;SDS011;57063;51.406;-2.402;2023-05-03T01:03:47;3.90;;;2.22;;
48881;SDS011;57063;51.406;-2.402;2023-05-03T01:11:16;4.80;;;1.83;;
48881;SDS011;57063;51.406;-2.402;2023-05-03T01:18:53;2.80;;;1.80;;
48881;SDS011;57063;51.406;-2.402;2023-05-03T01:21:19;4.30;;;1.75;;
48881;SDS011;57063;51.406;-2.402;2023-05-03T01:23:59;5.47;;;1.77;;
48881;SDS011;57063;51.406;-2.402;2023-05-03T01:26:27;4.65;;;1.52;;
48881;SDS011;57063;51.406;-2.402;2023-05-03T01:28:53;2.47;;;1.40;;
48881;SDS011;57063;51.406;-2.402;2023-05-03T01:31:25;2.40;;;1.63;;
48881;SDS011;57063;51.406;-2.402;2023-05-03T01:33:54;3.80;;;1.80;;
48881;SDS011;57063;51.406;-2.402;2023-05-03T01:36:25;2.63;;;1.58;;
48881;SDS011;57063;51.406;-2.402;2023-05-03T01:38:50;5.45;;;2.05;;
48881;SDS011;57063;51.406;-2.402;2023-05-03T01:41:16;5.25;;;1.65;;
48881;SDS011;57063;51.406;-2.402;2023-05-03T01:43:42;3.03;;;1.55;;
48881;SDS011;57063;51.406;-2.402;2023-05-03T01:46:07;3.47;;;1.80;;
48881;SDS011;57063;51.406;-2.402;2023-05-03T01:48:33;4.13;;;1.98;;
48881;SDS011;57063;51.406;-2.402;2023-05-03T01:50:58;4.45;;;1.52;;
48881;SDS011;57063;51.406;-2.402;2023-05-03T01:53:23;3.13;;;1.50;;
48881;SDS011;57063;51.406;-2.402;2023-05-03T01:55:48;3.63;;;1.60;;
48881;SDS011;57063;51.406;-2.402;2023-05-03T01:58:14;5.85;;;1.73;;
48881;SDS011;57063;51.406;-2.402;2023-05-03T02:00:40;2.90;;;1.40;;
48881;SDS011;57063;51.406;-2.402;2023-05-03T02:03:05;7.28;;;1.65;;
48881;SDS011;57063;51.406;-2.402;2023-05-03T02:05:30;2.78;;;1.30;;
48881;SDS011;57063;51.406;-2.402;2023-05-03T02:07:55;2.85;;;1.30;;
48881;SDS011;57063;51.406;-2.402;2023-05-03T02:10:20;3.73;;;1.40;;
48881;SDS011;57063;51.406;-2.402;2023-05-03T02:12:46;3.73;;;1.47;;
48881;SDS011;57063;51.406;-2.402;2023-05-03T02:15:11;3.63;;;1.52;;
48881;SDS011;57063;51.406;-2.402;2023-05-03T02:17:37;4.40;;;1.27;;
48881;SDS011;57063;51.406;-2.402;2023-05-03T02:20:02;5.50;;;1.88;;
48881;SDS011;57063;51.406;-2.402;2023-05-03T02:22:30;3.72;;;1.52;;
48881;SDS011;57063;51.406;-2.402;2023-05-03T02:24:55;2.80;;;0.95;;
48881;SDS011;57063;51.406;-2.402;2023-05-03T02:27:21;1.83;;;1.08;;
48881;SDS011;57063;51.406;-2.402;2023-05-03T02:29:46;3.03;;;1.47;;
48881;SDS011;57063;51.406;-2.402;2023-05-03T02:32:11;1.60;;;1.00;;
48881;SDS011;57063;51.406;-2.402;2023-05-03T02:34:37;2.47;;;1.07;;
48881;SDS011;57063;51.406;-2.402;2023-05-03T02:37:02;2.13;;;1.20;;
48881;SDS011;57063;51.406;-2.402;2023-05-03T02:39:28;3.35;;;0.98;;
48881;SDS011;57063;51.406;-2.402;2023-05-03T02:41:53;2.77;;;1.07;;
48881;SDS011;57063;51.406;-2.402;2023-05-03T02:44:18;5.15;;;1.58;;
48881;SDS011;57063;51.406;-2.402;2023-05-03T02:46:43;2.30;;;1.07;;
48881;SDS011;57063;51.406;-2.402;2023-05-03T02:49:09;2.45;;;0.98;;
48881;SDS011;57063;51.406;-2.402;2023-05-03T02:51:35;3.78;;;1.27;;
48881;SDS011;57063;51.406;-2.402;2023-05-03T02:54:00;2.88;;;0.90;;
48881;SDS011;57063;51.406;-2.402;2023-05-03T02:56:25;4.68;;;1.10;;
48881;SDS011;57063;51.406;-2.402;2023-05-03T02:58:51;2.03;;;1.10;;
48881;SDS011;57063;51.406;-2.402;2023-05-03T03:01:17;3.08;;;1.10;;
48881;SDS011;57063;51.406;-2.402;2023-05-03T03:03:42;2.25;;;0.88;;
48881;SDS011;57063;51.406;-2.402;2023-05-03T03:06:07;2.20;;;0.90;;
48881;SDS011;57063;51.406;-2.402;2023-05-03T03:08:32;2.13;;;0.90;;
48881;SDS011;57063;51.406;-2.402;2023-05-03T03:10:57;2.87;;;1.10;;
48881;SDS011;57063;51.406;-2.402;2023-05-03T03:13:23;3.37;;;0.90;;
48881;SDS011;57063;51.406;-2.402;2023-05-03T03:15:48;3.75;;;1.00;;
48881;SDS011;57063;51.406;-2.402;2023-05-03T03:18:13;1.67;;;1.00;;
48881;SDS011;57063;51.406;-2.402;2023-05-03T03:20:38;3.30;;;0.98;;
48881;SDS011;57063;51.406;-2.402;2023-05-03T03:23:04;2.30;;;0.90;;
48881;SDS011;57063;51.406;-2.402;2023-05-03T03:25:29;3.40;;;1.03;;
48881;SDS011;57063;51.406;-2.402;2023-05-03T03:27:54;1.92;;;0.90;;
48881;SDS011;57063;51.406;-2.402;2023-05-03T03:30:19;2.15;;;0.90;;
48881;SDS011;57063;51.406;-2.402;2023-05-03T03:32:44;1.80;;;0.93;;
48881;SDS011;57063;51.406;-2.402;2023-05-03T03:35:10;1.17;;;0.77;;
48881;SDS011;57063;51.406;-2.402;2023-05-03T03:37:36;1.90;;;1.15;;
48881;SDS011;57063;51.406;-2.402;2023-05-03T03:40:01;4.38;;;0.82;;
48881;SDS011;57063;51.406;-2.402;2023-05-03T03:42:26;3.03;;;0.82;;
48881;SDS011;57063;51.406;-2.402;2023-05-03T03:44:52;2.17;;;1.00;;
48881;SDS011;57063;51.406;-2.402;2023-05-03T03:47:17;1.60;;;0.65;;
48881;SDS011;57063;51.406;-2.402;2023-05-03T03:49:42;2.33;;;0.67;;
48881;SDS011;57063;51.406;-2.402;2023-05-03T03:52:08;2.83;;;0.98;;
48881;SDS011;57063;51.406;-2.402;2023-05-03T03:54:33;2.27;;;0.90;;
48881;SDS011;57063;51.406;-2.402;2023-05-03T03:56:59;3.28;;;0.98;;
48881;SDS011;57063;51.406;-2.402;2023-05-03T03:59:26;1.05;;;0.80;;
48881;SDS011;57063;51.406;-2.402;2023-05-03T04:01:52;1.95;;;0.95;;
48881;SDS011;57063;51.406;-2.402;2023-05-03T04:04:17;2.07;;;0.93;;
48881;SDS011;57063;51.406;-2.402;2023-05-03T04:06:42;2.25;;;0.80;;
48881;SDS011;57063;51.406;-2.402;2023-05-03T04:09:07;2.00;;;0.70;;
48881;SDS011;57063;51.406;-2.402;2023-05-03T04:11:33;2.03;;;1.05;;
48881;SDS011;57063;51.406;-2.402;2023-05-03T04:13:59;2.97;;;0.82;;
48881;SDS011;57063;51.406;-2.402;2023-05-03T04:16:24;1.65;;;0.90;;
48881;SDS011;57063;51.406;-2.402;2023-05-03T04:18:49;2.80;;;0.80;;
48881;SDS011;57063;51.406;-2.402;2023-05-03T04:21:15;1.15;;;0.90;;
48881;SDS011;57063;51.406;-2.402;2023-05-03T04:23:40;1.63;;;0.90;;
48881;SDS011;57063;51.406;-2.402;2023-05-03T04:26:05;0.85;;;0.57;;
48881;SDS011;57063;51.406;-2.402;2023-05-03T04:28:31;1.30;;;0.90;;
48881;SDS011;57063;51.406;-2.402;2023-05-03T04:30:57;1.10;;;0.98;;
48881;SDS011;57063;51.406;-2.402;2023-05-03T04:33:22;1.73;;;0.85;;
48881;SDS011;57063;51.406;-2.402;2023-05-03T04:35:48;1.13;;;0.80;;
48881;SDS011;57063;51.406;-2.402;2023-05-03T04:38:14;3.63;;;0.70;;
48881;SDS011;57063;51.406;-2.402;2023-05-03T04:40:40;1.73;;;0.98;;
48881;SDS011;57063;51.406;-2.402;2023-05-03T04:43:05;1.03;;;0.67;;
48881;SDS011;57063;51.406;-2.402;2023-05-03T04:45:30;1.75;;;0.70;;
48881;SDS011;57063;51.406;-2.402;2023-05-03T04:47:56;1.23;;;0.80;;
48881;SDS011;57063;51.406;-2.402;2023-05-03T04:50:21;1.60;;;1.00;;
48881;SDS011;57063;51.406;-2.402;2023-05-03T04:52:46;4.03;;;1.03;;
48881;SDS011;57063;51.406;-2.402;2023-05-03T04:55:11;2.55;;;0.60;;
48881;SDS011;57063;51.406;-2.402;2023-05-03T04:57:38;5.38;;;0.73;;
48881;SDS011;57063;51.406;-2.402;2023-05-03T05:00:03;1.77;;;0.83;;
48881;SDS011;57063;51.406;-2.402;2023-05-03T05:02:31;1.10;;;0.60;;
48881;SDS011;57063;51.406;-2.402;2023-05-03T05:04:56;1.30;;;1.00;;
48881;SDS011;57063;51.406;-2.402;2023-05-03T05:07:21;5.03;;;0.77;;
48881;SDS011;57063;51.406;-2.402;2023-05-03T05:09:47;2.37;;;1.30;;
48881;SDS011;57063;51.406;-2.402;2023-05-03T05:12:12;1.73;;;0.90;;
48881;SDS011;57063;51.406;-2.402;2023-05-03T05:14:37;5.93;;;0.87;;
48881;SDS011;57063;51.406;-2.402;2023-05-03T05:17:02;3.93;;;1.10;;
48881;SDS011;57063;51.406;-2.402;2023-05-03T05:19:27;2.95;;;1.10;;
48881;SDS011;57063;51.406;-2.402;2023-05-03T05:21:53;11.97;;;1.00;;
48881;SDS011;57063;51.406;-2.402;2023-05-03T05:24:18;3.33;;;1.10;;
48881;SDS011;57063;51.406;-2.402;2023-05-03T05:26:43;8.47;;;1.40;;
48881;SDS011;57063;51.406;-2.402;2023-05-03T05:29:08;15.43;;;1.40;;
48881;SDS011;57063;51.406;-2.402;2023-05-03T05:31:34;7.13;;;1.30;;
48881;SDS011;57063;51.406;-2.402;2023-05-03T05:34:00;3.60;;;1.20;;
48881;SDS011;57063;51.406;-2.402;2023-05-03T05:36:25;3.47;;;1.00;;
48881;SDS011;57063;51.406;-2.402;2023-05-03T05:38:51;5.22;;;0.95;;
48881;SDS011;57063;51.406;-2.402;2023-05-03T05:41:16;4.32;;;1.08;;
48881;SDS011;57063;51.406;-2.402;2023-05-03T05:43:41;5.25;;;1.15;;
48881;SDS011;57063;51.406;-2.402;2023-05-03T05:46:06;2.37;;;0.90;;
48881;SDS011;57063;51.406;-2.402;2023-05-03T05:48:32;1.92;;;0.93;;
48881;SDS011;57063;51.406;-2.402;2023-05-03T05:50:57;3.35;;;1.38;;
48881;SDS011;57063;51.406;-2.402;2023-05-03T05:53:22;2.83;;;0.93;;
48881;SDS011;57063;51.406;-2.402;2023-05-03T05:55:48;2.00;;;0.80;;
48881;SDS011;57063;51.406;-2.402;2023-05-03T05:58:14;2.35;;;1.08;;
48881;SDS011;57063;51.406;-2.402;2023-05-03T06:00:39;3.08;;;0.90;;
48881;SDS011;57063;51.406;-2.402;2023-05-03T06:03:04;2.25;;;0.85;;
48881;SDS011;57063;51.406;-2.402;2023-05-03T06:05:30;2.15;;;0.90;;
48881;SDS011;57063;51.406;-2.402;2023-05-03T06:07:55;1.93;;;0.80;;
48881;SDS011;57063;51.406;-2.402;2023-05-03T06:10:20;1.77;;;0.80;;
48881;SDS011;57063;51.406;-2.402;2023-05-03T06:12:45;4.40;;;0.82;;
48881;SDS011;57063;51.406;-2.402;2023-05-03T06:15:11;3.13;;;0.60;;
48881;SDS011;57063;51.406;-2.402;2023-05-03T06:17:36;5.53;;;1.27;;
48881;SDS011;57063;51.406;-2.402;2023-05-03T06:20:01;3.70;;;1.15;;
48881;SDS011;57063;51.406;-2.402;2023-05-03T06:22:28;1.50;;;0.80;;
48881;SDS011;57063;51.406;-2.402;2023-05-03T06:24:54;3.07;;;1.03;;
48881;SDS011;57063;51.406;-2.402;2023-05-03T06:27:19;2.60;;;0.95;;
48881;SDS011;57063;51.406;-2.402;2023-05-03T06:29:44;3.60;;;0.80;;
48881;SDS011;57063;51.406;-2.402;2023-05-03T06:32:10;4.22;;;1.17;;
48881;SDS011;57063;51.406;-2.402;2023-05-03T06:34:35;2.05;;;0.70;;
48881;SDS011;57063;51.406;-2.402;2023-05-03T06:37:01;2.30;;;0.77;;
48881;SDS011;57063;51.406;-2.402;2023-05-03T06:39:26;3.45;;;0.90;;
48881;SDS011;57063;51.406;-2.402;2023-05-03T06:41:52;3.35;;;1.02;;
48881;SDS011;57063;51.406;-2.402;2023-05-03T06:44:17;1.35;;;0.70;;
48881;SDS011;57063;51.406;-2.402;2023-05-03T06:46:42;4.10;;;1.20;;
48881;SDS011;57063;51.406;-2.402;2023-05-03T06:49:08;2.90;;;0.90;;
48881;SDS011;57063;51.406;-2.402;2023-05-03T06:51:33;2.75;;;0.73;;
48881;SDS011;57063;51.406;-2.402;2023-05-03T06:53:59;2.17;;;0.67;;
48881;SDS011;57063;51.406;-2.402;2023-05-03T06:56:30;2.83;;;0.90;;
48881;SDS011;57063;51.406;-2.402;2023-05-03T06:58:55;1.83;;;0.70;;
48881;SDS011;57063;51.406;-2.402;2023-05-03T07:01:20;2.27;;;0.77;;
48881;SDS011;57063;51.406;-2.402;2023-05-03T07:03:47;0.93;;;0.90;;
48881;SDS011;57063;51.406;-2.402;2023-05-03T07:06:12;1.53;;;0.90;;
48881;SDS011;57063;51.406;-2.402;2023-05-03T07:08:37;1.95;;;0.68;;
48881;SDS011;57063;51.406;-2.402;2023-05-03T07:11:03;2.35;;;0.90;;
48881;SDS011;57063;51.406;-2.402;2023-05-03T07:13:28;3.20;;;0.90;;
48881;SDS011;57063;51.406;-2.402;2023-05-03T07:15:54;3.63;;;0.82;;
48881;SDS011;57063;51.406;-2.402;2023-05-03T07:18:19;2.50;;;0.88;;
48881;SDS011;57063;51.406;-2.402;2023-05-03T07:20:44;1.35;;;0.90;;
48881;SDS011;57063;51.406;-2.402;2023-05-03T07:23:10;1.17;;;0.85;;
48881;SDS011;57063;51.406;-2.402;2023-05-03T07:25:35;1.45;;;0.90;;
48881;SDS011;57063;51.406;-2.402;2023-05-03T07:28:03;2.38;;;0.90;;
48881;SDS011;57063;51.406;-2.402;2023-05-03T07:30:28;3.30;;;0.88;;
48881;SDS011;57063;51.406;-2.402;2023-05-03T07:32:53;3.03;;;0.80;;
48881;SDS011;57063;51.406;-2.402;2023-05-03T07:35:19;3.72;;;1.00;;
48881;SDS011;57063;51.406;-2.402;2023-05-03T07:37:44;1.63;;;0.85;;
48881;SDS011;57063;51.406;-2.402;2023-05-03T07:40:10;1.27;;;0.75;;
48881;SDS011;57063;51.406;-2.402;2023-05-03T07:42:36;1.83;;;0.70;;
48881;SDS011;57063;51.406;-2.402;2023-05-03T07:45:01;2.10;;;0.68;;
48881;SDS011;57063;51.406;-2.402;2023-05-03T07:47:27;3.92;;;0.95;;
48881;SDS011;57063;51.406;-2.402;2023-05-03T07:49:52;3.30;;;0.77;;
48881;SDS011;57063;51.406;-2.402;2023-05-03T07:52:17;2.55;;;0.98;;
48881;SDS011;57063;51.406;-2.402;2023-05-03T07:54:43;1.63;;;0.70;;
48881;SDS011;57063;51.406;-2.402;2023-05-03T07:57:10;1.25;;;0.55;;
48881;SDS011;57063;51.406;-2.402;2023-05-03T07:59:35;2.72;;;0.82;;
48881;SDS011;57063;51.406;-2.402;2023-05-03T08:02:00;3.95;;;0.80;;
48881;SDS011;57063;51.406;-2.402;2023-05-03T08:04:25;2.30;;;0.83;;
48881;SDS011;57063;51.406;-2.402;2023-05-03T08:06:51;2.05;;;0.70;;
48881;SDS011;57063;51.406;-2.402;2023-05-03T08:09:16;1.73;;;0.80;;
48881;SDS011;57063;51.406;-2.402;2023-05-03T08:11:42;1.35;;;0.52;;
48881;SDS011;57063;51.406;-2.402;2023-05-03T08:14:08;2.10;;;0.65;;
48881;SDS011;57063;51.406;-2.402;2023-05-03T08:16:33;2.10;;;0.73;;
48881;SDS011;57063;51.406;-2.402;2023-05-03T08:18:58;3.65;;;0.60;;
48881;SDS011;57063;51.406;-2.402;2023-05-03T08:21:23;0.85;;;0.50;;
48881;SDS011;57063;51.406;-2.402;2023-05-03T08:23:50;1.48;;;0.55;;
48881;SDS011;57063;51.406;-2.402;2023-05-03T08:26:15;0.87;;;0.63;;
48881;SDS011;57063;51.406;-2.402;2023-05-03T08:28:41;2.63;;;0.98;;
48881;SDS011;57063;51.406;-2.402;2023-05-03T08:31:06;0.88;;;0.60;;
48881;SDS011;57063;51.406;-2.402;2023-05-03T08:33:32;3.00;;;0.90;;
48881;SDS011;57063;51.406;-2.402;2023-05-03T08:35:57;1.52;;;0.63;;
48881;SDS011;57063;51.406;-2.402;2023-05-03T08:38:22;2.65;;;0.70;;
48881;SDS011;57063;51.406;-2.402;2023-05-03T08:40:48;1.45;;;0.60;;
48881;SDS011;57063;51.406;-2.402;2023-05-03T08:43:14;1.45;;;0.50;;
48881;SDS011;57063;51.406;-2.402;2023-05-03T08:45:42;0.85;;;0.38;;
48881;SDS011;57063;51.406;-2.402;2023-05-03T08:48:07;0.50;;;0.40;;
48881;SDS011;57063;51.406;-2.402;2023-05-03T08:50:33;13.67;;;3.13;;
48881;SDS011;57063;51.406;-2.402;2023-05-03T08:53:05;1.70;;;0.60;;
48881;SDS011;57063;51.406;-2.402;2023-05-03T08:55:31;0.95;;;0.30;;
48881;SDS011;57063;51.406;-2.402;2023-05-03T08:57:58;1.97;;;0.50;;
48881;SDS011;57063;51.406;-2.402;2023-05-03T09:00:27;1.95;;;0.40;;
48881;SDS011;57063;51.406;-2.402;2023-05-03T09:05:29;1.50;;;0.70;;
48881;SDS011;57063;51.406;-2.402;2023-05-03T09:08:04;1.13;;;0.50;;
48881;SDS011;57063;51.406;-2.402;2023-05-03T09:10:30;1.08;;;0.40;;
48881;SDS011;57063;51.406;-2.402;2023-05-03T09:12:59;2.78;;;0.90;;
48881;SDS011;57063;51.406;-2.402;2023-05-03T09:15:25;1.05;;;0.43;;
48881;SDS011;57063;51.406;-2.402;2023-05-03T09:20:36;1.13;;;0.40;;
48881;SDS011;57063;51.406;-2.402;2023-05-03T09:23:01;1.73;;;0.80;;
48881;SDS011;57063;51.406;-2.402;2023-05-03T09:25:42;1.35;;;0.43;;
48881;SDS011;57063;51.406;-2.402;2023-05-03T09:28:08;1.92;;;0.60;;
48881;SDS011;57063;51.406;-2.402;2023-05-03T09:30:33;1.95;;;0.50;;
48881;SDS011;57063;51.406;-2.402;2023-05-03T09:32:58;2.92;;;0.40;;
48881;SDS011;57063;51.406;-2.402;2023-05-03T09:35:23;0.70;;;0.37;;
48881;SDS011;57063;51.406;-2.402;2023-05-03T09:37:49;1.15;;;0.43;;
48881;SDS011;57063;51.406;-2.402;2023-05-03T09:40:14;1.40;;;0.50;;
48881;SDS011;57063;51.406;-2.402;2023-05-03T09:43:03;1.65;;;0.57;;
48881;SDS011;57063;51.406;-2.402;2023-05-03T09:45:27;1.80;;;0.60;;
48881;SDS011;57063;51.406;-2.402;2023-05-03T09:47:52;1.58;;;0.50;;
48881;SDS011;57063;51.406;-2.402;2023-05-03T09:50:19;0.70;;;0.38;;
48881;SDS011;57063;51.406;-2.402;2023-05-03T09:52:45;1.05;;;0.30;;
48881;SDS011;57063;51.406;-2.402;2023-05-03T09:55:11;0.60;;;0.40;;
48881;SDS011;57063;51.406;-2.402;2023-05-03T09:57:36;0.77;;;0.50;;
48881;SDS011;57063;51.406;-2.402;2023-05-03T10:00:02;1.40;;;0.20;;
48881;SDS011;57063;51.406;-2.402;2023-05-03T10:02:29;1.80;;;0.45;;
48881;SDS011;57063;51.406;-2.402;2023-05-03T10:04:55;1.40;;;0.30;;
48881;SDS011;57063;51.406;-2.402;2023-05-03T10:07:22;1.92;;;0.43;;
48881;SDS011;57063;51.406;-2.402;2023-05-03T10:09:48;1.65;;;0.60;;
48881;SDS011;57063;51.406;-2.402;2023-05-03T10:12:14;0.77;;;0.50;;
48881;SDS011;57063;51.406;-2.402;2023-05-03T10:14:43;0.47;;;0.28;;
48881;SDS011;57063;51.406;-2.402;2023-05-03T10:19:54;1.63;;;0.50;;
48881;SDS011;57063;51.406;-2.402;2023-05-03T10:22:20;0.90;;;0.40;;
48881;SDS011;57063;51.406;-2.402;2023-05-03T10:25:06;1.43;;;0.20;;
48881;SDS011;57063;51.406;-2.402;2023-05-03T10:27:41;1.90;;;0.50;;
48881;SDS011;57063;51.406;-2.402;2023-05-03T10:30:07;0.60;;;0.22;;
48881;SDS011;57063;51.406;-2.402;2023-05-03T10:32:36;1.30;;;0.40;;
48881;SDS011;57063;51.406;-2.402;2023-05-03T10:35:13;0.88;;;0.30;;
48881;SDS011;57063;51.406;-2.402;2023-05-03T10:37:42;1.00;;;0.40;;
48881;SDS011;57063;51.406;-2.402;2023-05-03T10:42:34;0.20;;;0.20;;
48881;SDS011;57063;51.406;-2.402;2023-05-03T10:45:00;13.65;;;0.70;;
48881;SDS011;57063;51.406;-2.402;2023-05-03T10:47:27;2.63;;;0.40;;
48881;SDS011;57063;51.406;-2.402;2023-05-03T10:55:19;0.45;;;0.35;;
48881;SDS011;57063;51.406;-2.402;2023-05-03T10:57:49;5.18;;;0.90;;
48881;SDS011;57063;51.406;-2.402;2023-05-03T11:05:47;1.63;;;0.60;;
48881;SDS011;57063;51.406;-2.402;2023-05-03T11:08:16;0.57;;;0.30;;
48881;SDS011;57063;51.406;-2.402;2023-05-03T11:10:45;2.03;;;0.50;;
48881;SDS011;57063;51.406;-2.402;2023-05-03T11:13:11;0.93;;;0.50;;
48881;SDS011;57063;51.406;-2.402;2023-05-03T11:15:37;0.50;;;0.40;;
48881;SDS011;57063;51.406;-2.402;2023-05-03T11:18:03;0.40;;;0.30;;
48881;SDS011;57063;51.406;-2.402;2023-05-03T11:20:29;2.33;;;0.70;;
48881;SDS011;57063;51.406;-2.402;2023-05-03T11:22:54;1.58;;;0.60;;
48881;SDS011;57063;51.406;-2.402;2023-05-03T11:25:20;0.80;;;0.40;;
48881;SDS011;57063;51.406;-2.402;2023-05-03T11:27:45;1.30;;;0.50;;
48881;SDS011;57063;51.406;-2.402;2023-05-03T11:30:13;3.08;;;0.40;;
48881;SDS011;57063;51.406;-2.402;2023-05-03T11:32:39;1.38;;;0.82;;
48881;SDS011;57063;51.406;-2.402;2023-05-03T11:35:05;2.15;;;1.30;;
48881;SDS011;57063;51.406;-2.402;2023-05-03T11:37:31;1.75;;;0.80;;
48881;SDS011;57063;51.406;-2.402;2023-05-03T11:39:56;5.88;;;3.42;;
48881;SDS011;57063;51.406;-2.402;2023-05-03T11:42:22;8.30;;;3.50;;
48881;SDS011;57063;51.406;-2.402;2023-05-03T11:44:49;8.13;;;3.13;;
48881;SDS011;57063;51.406;-2.402;2023-05-03T11:47:15;6.32;;;3.40;;
48881;SDS011;57063;51.406;-2.402;2023-05-03T11:49:49;4.72;;;2.50;;
48881;SDS011;57063;51.406;-2.402;2023-05-03T11:52:18;5.88;;;2.25;;
48881;SDS011;57063;51.406;-2.402;2023-05-03T11:54:44;3.45;;;2.40;;
48881;SDS011;57063;51.406;-2.402;2023-05-03T11:57:11;7.07;;;2.30;;
48881;SDS011;57063;51.406;-2.402;2023-05-03T11:59:37;6.47;;;2.20;;
48881;SDS011;57063;51.406;-2.402;2023-05-03T12:02:02;4.97;;;2.00;;
48881;SDS011;57063;51.406;-2.402;2023-05-03T12:04:29;5.25;;;1.95;;
48881;SDS011;57063;51.406;-2.402;2023-05-03T12:06:54;4.53;;;2.53;;
48881;SDS011;57063;51.406;-2.402;2023-05-03T12:09:20;3.85;;;2.45;;
48881;SDS011;57063;51.406;-2.402;2023-05-03T12:11:45;2.63;;;1.63;;
48881;SDS011;57063;51.406;-2.402;2023-05-03T12:14:13;1.60;;;1.40;;
48881;SDS011;57063;51.406;-2.402;2023-05-03T12:16:48;3.20;;;1.67;;
48881;SDS011;57063;51.406;-2.402;2023-05-03T12:19:25;4.43;;;1.80;;
48881;SDS011;57063;51.406;-2.402;2023-05-03T12:21:51;4.13;;;1.70;;
48881;SDS011;57063;51.406;-2.402;2023-05-03T12:24:16;3.38;;;1.52;;
48881;SDS011;57063;51.406;-2.402;2023-05-03T12:26:43;4.60;;;1.58;;
48881;SDS011;57063;51.406;-2.402;2023-05-03T12:29:09;3.03;;;1.58;;
48881;SDS011;57063;51.406;-2.402;2023-05-03T12:31:34;3.13;;;1.30;;
48881;SDS011;57063;51.406;-2.402;2023-05-03T12:34:01;2.92;;;1.40;;
48881;SDS011;57063;51.406;-2.402;2023-05-03T12:36:28;3.83;;;1.27;;
48881;SDS011;57063;51.406;-2.402;2023-05-03T12:38:53;2.55;;;1.00;;
48881;SDS011;57063;51.406;-2.402;2023-05-03T12:41:18;4.50;;;1.17;;
48881;SDS011;57063;51.406;-2.402;2023-05-03T12:43:44;3.33;;;1.10;;
48881;SDS011;57063;51.406;-2.402;2023-05-03T12:46:09;4.18;;;1.15;;
48881;SDS011;57063;51.406;-2.402;2023-05-03T12:48:35;1.92;;;1.13;;
48881;SDS011;57063;51.406;-2.402;2023-05-03T12:51:00;1.93;;;1.17;;
48881;SDS011;57063;51.406;-2.402;2023-05-03T12:53:25;2.95;;;1.20;;
48881;SDS011;57063;51.406;-2.402;2023-05-03T12:55:51;1.98;;;1.15;;
48881;SDS011;57063;51.406;-2.402;2023-05-03T12:58:16;2.05;;;1.08;;
48881;SDS011;57063;51.406;-2.402;2023-05-03T13:00:42;2.30;;;1.17;;
48881;SDS011;57063;51.406;-2.402;2023-05-03T13:03:08;2.85;;;1.33;;
48881;SDS011;57063;51.406;-2.402;2023-05-03T13:05:33;1.17;;;0.82;;
48881;SDS011;57063;51.406;-2.402;2023-05-03T13:07:59;2.40;;;1.30;;
48881;SDS011;57063;51.406;-2.402;2023-05-03T13:10:25;3.72;;;1.00;;
48881;SDS011;57063;51.406;-2.402;2023-05-03T13:12:51;3.22;;;1.17;;
48881;SDS011;57063;51.406;-2.402;2023-05-03T13:15:17;4.78;;;1.30;;
48881;SDS011;57063;51.406;-2.402;2023-05-03T13:17:43;6.20;;;1.58;;
48881;SDS011;57063;51.406;-2.402;2023-05-03T13:20:08;1.97;;;1.30;;
48881;SDS011;57063;51.406;-2.402;2023-05-03T13:22:34;3.15;;;1.20;;
48881;SDS011;57063;51.406;-2.402;2023-05-03T13:25:00;3.58;;;1.50;;
48881;SDS011;57063;51.406;-2.402;2023-05-03T13:27:26;1.85;;;1.48;;
48881;SDS011;57063;51.406;-2.402;2023-05-03T13:29:52;1.95;;;0.98;;
48881;SDS011;57063;51.406;-2.402;2023-05-03T13:32:17;2.60;;;1.20;;
48881;SDS011;57063;51.406;-2.402;2023-05-03T13:34:42;7.70;;;1.47;;
48881;SDS011;57063;51.406;-2.402;2023-05-03T13:37:08;2.27;;;1.20;;
48881;SDS011;57063;51.406;-2.402;2023-05-03T13:39:33;4.30;;;1.33;;
48881;SDS011;57063;51.406;-2.402;2023-05-03T13:41:58;4.57;;;1.43;;
48881;SDS011;57063;51.406;-2.402;2023-05-03T13:44:23;4.20;;;1.45;;
48881;SDS011;57063;51.406;-2.402;2023-05-03T13:46:49;4.63;;;1.55;;
48881;SDS011;57063;51.406;-2.402;2023-05-03T13:49:14;2.58;;;1.25;;
48881;SDS011;57063;51.406;-2.402;2023-05-03T13:51:40;3.47;;;1.17;;
48881;SDS011;57063;51.406;-2.402;2023-05-03T13:54:05;2.55;;;1.33;;
48881;SDS011;57063;51.406;-2.402;2023-05-03T13:56:31;2.72;;;1.40;;
48881;SDS011;57063;51.406;-2.402;2023-05-03T13:58:56;1.58;;;0.90;;
48881;SDS011;57063;51.406;-2.402;2023-05-03T14:01:25;3.03;;;1.17;;
48881;SDS011;57063;51.406;-2.402;2023-05-03T14:03:51;2.47;;;1.10;;
48881;SDS011;57063;51.406;-2.402;2023-05-03T14:06:16;3.55;;;1.40;;
48881;SDS011;57063;51.406;-2.402;2023-05-03T14:08:42;2.53;;;1.48;;
48881;SDS011;57063;51.406;-2.402;2023-05-03T14:11:13;2.95;;;1.45;;
48881;SDS011;57063;51.406;-2.402;2023-05-03T14:16:04;8.35;;;3.08;;
48881;SDS011;57063;51.406;-2.402;2023-05-03T14:18:29;9.15;;;2.25;;
48881;SDS011;57063;51.406;-2.402;2023-05-03T14:20:55;6.25;;;2.80;;
48881;SDS011;57063;51.406;-2.402;2023-05-03T14:23:21;5.78;;;3.00;;
48881;SDS011;57063;51.406;-2.402;2023-05-03T14:25:46;7.18;;;3.10;;
48881;SDS011;57063;51.406;-2.402;2023-05-03T14:28:11;10.40;;;3.70;;
48881;SDS011;57063;51.406;-2.402;2023-05-03T14:30:36;7.73;;;2.63;;
48881;SDS011;57063;51.406;-2.402;2023-05-03T14:33:02;7.87;;;3.03;;
48881;SDS011;57063;51.406;-2.402;2023-05-03T14:35:27;13.40;;;2.88;;
48881;SDS011;57063;51.406;-2.402;2023-05-03T14:37:52;7.22;;;2.45;;
48881;SDS011;57063;51.406;-2.402;2023-05-03T14:40:18;6.45;;;2.28;;
48881;SDS011;57063;51.406;-2.402;2023-05-03T14:42:44;6.88;;;3.17;;
48881;SDS011;57063;51.406;-2.402;2023-05-03T14:45:10;7.78;;;2.53;;
48881;SDS011;57063;51.406;-2.402;2023-05-03T14:47:38;6.70;;;2.20;;
48881;SDS011;57063;51.406;-2.402;2023-05-03T14:50:04;6.57;;;2.40;;
48881;SDS011;57063;51.406;-2.402;2023-05-03T14:52:29;9.32;;;2.25;;
48881;SDS011;57063;51.406;-2.402;2023-05-03T14:54:54;6.20;;;3.40;;
48881;SDS011;57063;51.406;-2.402;2023-05-03T14:57:19;10.80;;;4.10;;
48881;SDS011;57063;51.406;-2.402;2023-05-03T14:59:45;7.93;;;2.60;;